sensor_id;sensor_type;location;lat;lon;timestamp;temperature;humidity
22716;DHT22;11525;51.152;4.456;2023-06-19T00:02:11;20.90;99.90
22716;DHT22;11525;51.152;4.456;2023-06-19T00:04:37;20.80;99.90
22716;DHT22;11525;51.152;4.456;2023-06-19T00:07:03;20.80;99.90
22716;DHT22;11525;51.152;4.456;2023-06-19T00:09:30;20.80;99.90
22716;DHT22;11525;51.152;4.456;2023-06-19T00:11:56;20.80;99.90
22716;DHT22;11525;51.152;4.456;2023-06-19T00:14:24;20.90;99.90
22716;DHT22;11525;51.152;4.456;2023-06-19T00:16:49;20.90;99.90
22716;DHT22;11525;51.152;4.456;2023-06-19T00:19:21;21.10;99.90
22716;DHT22;11525;51.152;4.456;2023-06-19T00:21:50;21.20;99.90
22716;DHT22;11525;51.152;4.456;2023-06-19T00:24:16;21.20;99.90
22716;DHT22;11525;51.152;4.456;2023-06-19T00:26:45;21.20;99.90
22716;DHT22;11525;51.152;4.456;2023-06-19T00:29:11;21.10;99.90
22716;DHT22;11525;51.152;4.456;2023-06-19T00:31:37;21.10;99.90
22716;DHT22;11525;51.152;4.456;2023-06-19T00:34:02;21.10;99.90
22716;DHT22;11525;51.152;4.456;2023-06-19T00:36:28;21.20;99.90
22716;DHT22;11525;51.152;4.456;2023-06-19T00:38:54;21.10;99.90
22716;DHT22;11525;51.152;4.456;2023-06-19T00:41:26;21.00;99.90
22716;DHT22;11525;51.152;4.456;2023-06-19T00:44:47;21.00;99.90
22716;DHT22;11525;51.152;4.456;2023-06-19T00:47:11;20.90;99.90
22716;DHT22;11525;51.152;4.456;2023-06-19T00:49:37;21.00;99.90
22716;DHT22;11525;51.152;4.456;2023-06-19T00:52:03;21.00;99.90
22716;DHT22;11525;51.152;4.456;2023-06-19T00:54:35;20.90;99.90
22716;DHT22;11525;51.152;4.456;2023-06-19T00:57:03;21.10;99.90
22716;DHT22;11525;51.152;4.456;2023-06-19T00:59:32;21.20;99.90
22716;DHT22;11525;51.152;4.456;2023-06-19T01:01:59;21.20;99.90
22716;DHT22;11525;51.152;4.456;2023-06-19T01:04:25;21.20;99.90
22716;DHT22;11525;51.152;4.456;2023-06-19T01:06:54;21.10;99.90
22716;DHT22;11525;51.152;4.456;2023-06-19T01:09:33;21.10;99.90
22716;DHT22;11525;51.152;4.456;2023-06-19T01:12:05;21.10;99.90
22716;DHT22;11525;51.152;4.456;2023-06-19T01:14:38;21.10;99.90
22716;DHT22;11525;51.152;4.456;2023-06-19T01:17:05;21.00;99.90
22716;DHT22;11525;51.152;4.456;2023-06-19T01:19:35;21.00;99.90
22716;DHT22;11525;51.152;4.456;2023-06-19T01:22:02;21.00;99.90
22716;DHT22;11525;51.152;4.456;2023-06-19T01:24:29;21.00;99.90
22716;DHT22;11525;51.152;4.456;2023-06-19T01:26:55;21.00;99.90
22716;DHT22;11525;51.152;4.456;2023-06-19T01:29:21;21.00;99.90
22716;DHT22;11525;51.152;4.456;2023-06-19T01:32:10;20.90;99.90
22716;DHT22;11525;51.152;4.456;2023-06-19T01:34:39;20.90;99.90
22716;DHT22;11525;51.152;4.456;2023-06-19T01:37:06;20.80;99.90
22716;DHT22;11525;51.152;4.456;2023-06-19T01:39:33;20.80;99.90
22716;DHT22;11525;51.152;4.456;2023-06-19T01:42:10;20.80;99.90
22716;DHT22;11525;51.152;4.456;2023-06-19T01:44:37;21.00;99.90
22716;DHT22;11525;51.152;4.456;2023-06-19T01:47:15;21.10;99.90
22716;DHT22;11525;51.152;4.456;2023-06-19T01:49:46;21.00;99.90
22716;DHT22;11525;51.152;4.456;2023-06-19T01:52:12;20.90;99.90
22716;DHT22;11525;51.152;4.456;2023-06-19T01:54:39;20.80;99.90
22716;DHT22;11525;51.152;4.456;2023-06-19T01:57:15;20.80;99.90
22716;DHT22;11525;51.152;4.456;2023-06-19T01:59:49;20.80;99.90
22716;DHT22;11525;51.152;4.456;2023-06-19T02:02:20;20.80;99.90
22716;DHT22;11525;51.152;4.456;2023-06-19T02:04:57;20.80;99.90
22716;DHT22;11525;51.152;4.456;2023-06-19T02:07:23;21.00;99.90
22716;DHT22;11525;51.152;4.456;2023-06-19T02:09:49;20.90;99.90
22716;DHT22;11525;51.152;4.456;2023-06-19T02:12:18;20.80;99.90
22716;DHT22;11525;51.152;4.456;2023-06-19T02:14:43;20.70;99.90
22716;DHT22;11525;51.152;4.456;2023-06-19T02:17:09;20.80;99.90
22716;DHT22;11525;51.152;4.456;2023-06-19T02:19:35;20.80;99.90
22716;DHT22;11525;51.152;4.456;2023-06-19T02:22:01;20.70;99.90
22716;DHT22;11525;51.152;4.456;2023-06-19T02:24:26;20.70;99.90
22716;DHT22;11525;51.152;4.456;2023-06-19T02:26:52;20.70;99.90
22716;DHT22;11525;51.152;4.456;2023-06-19T02:29:18;20.80;99.90
22716;DHT22;11525;51.152;4.456;2023-06-19T02:31:44;20.80;99.90
22716;DHT22;11525;51.152;4.456;2023-06-19T02:34:10;20.80;99.90
22716;DHT22;11525;51.152;4.456;2023-06-19T02:36:36;20.80;99.90
22716;DHT22;11525;51.152;4.456;2023-06-19T02:39:05;20.70;99.90
22716;DHT22;11525;51.152;4.456;2023-06-19T02:41:34;20.80;99.90
22716;DHT22;11525;51.152;4.456;2023-06-19T02:44:00;20.80;99.90
22716;DHT22;11525;51.152;4.456;2023-06-19T02:46:26;20.70;99.90
22716;DHT22;11525;51.152;4.456;2023-06-19T02:48:54;20.80;99.90
22716;DHT22;11525;51.152;4.456;2023-06-19T02:51:20;20.80;99.90
22716;DHT22;11525;51.152;4.456;2023-06-19T02:53:46;20.70;99.90
22716;DHT22;11525;51.152;4.456;2023-06-19T02:56:13;20.70;99.90
22716;DHT22;11525;51.152;4.456;2023-06-19T02:58:39;20.70;99.90
22716;DHT22;11525;51.152;4.456;2023-06-19T03:01:05;20.90;99.90
22716;DHT22;11525;51.152;4.456;2023-06-19T03:03:34;20.90;99.90
22716;DHT22;11525;51.152;4.456;2023-06-19T03:06:05;20.80;99.90
22716;DHT22;11525;51.152;4.456;2023-06-19T03:08:34;20.70;99.90
22716;DHT22;11525;51.152;4.456;2023-06-19T03:11:20;20.80;99.90
22716;DHT22;11525;51.152;4.456;2023-06-19T03:13:53;20.70;99.90
22716;DHT22;11525;51.152;4.456;2023-06-19T03:16:20;20.80;99.90
22716;DHT22;11525;51.152;4.456;2023-06-19T03:18:46;20.80;99.90
22716;DHT22;11525;51.152;4.456;2023-06-19T03:21:15;20.70;99.90
22716;DHT22;11525;51.152;4.456;2023-06-19T03:23:42;20.70;99.90
22716;DHT22;11525;51.152;4.456;2023-06-19T03:26:09;20.70;99.90
22716;DHT22;11525;51.152;4.456;2023-06-19T03:28:35;20.80;99.90
22716;DHT22;11525;51.152;4.456;2023-06-19T03:31:07;20.70;99.90
22716;DHT22;11525;51.152;4.456;2023-06-19T03:33:33;20.80;99.90
22716;DHT22;11525;51.152;4.456;2023-06-19T03:35:59;20.70;99.90
22716;DHT22;11525;51.152;4.456;2023-06-19T03:38:29;20.60;99.90
22716;DHT22;11525;51.152;4.456;2023-06-19T03:40:57;20.60;99.90
22716;DHT22;11525;51.152;4.456;2023-06-19T03:43:23;20.50;99.90
22716;DHT22;11525;51.152;4.456;2023-06-19T03:45:49;20.70;99.90
22716;DHT22;11525;51.152;4.456;2023-06-19T03:48:16;20.50;99.90
22716;DHT22;11525;51.152;4.456;2023-06-19T03:50:42;20.60;99.90
22716;DHT22;11525;51.152;4.456;2023-06-19T03:53:08;20.60;99.90
22716;DHT22;11525;51.152;4.456;2023-06-19T03:55:34;20.40;99.90
22716;DHT22;11525;51.152;4.456;2023-06-19T03:58:03;20.30;99.90
22716;DHT22;11525;51.152;4.456;2023-06-19T04:00:36;20.30;99.90
22716;DHT22;11525;51.152;4.456;2023-06-19T04:03:07;20.20;99.90
22716;DHT22;11525;51.152;4.456;2023-06-19T04:05:34;20.20;99.90
22716;DHT22;11525;51.152;4.456;2023-06-19T04:08:00;20.10;99.90
22716;DHT22;11525;51.152;4.456;2023-06-19T04:10:26;20.00;99.90
22716;DHT22;11525;51.152;4.456;2023-06-19T04:12:51;20.00;99.90
22716;DHT22;11525;51.152;4.456;2023-06-19T04:15:20;20.10;99.90
22716;DHT22;11525;51.152;4.456;2023-06-19T04:17:45;20.10;99.90
22716;DHT22;11525;51.152;4.456;2023-06-19T04:20:11;20.20;99.90
22716;DHT22;11525;51.152;4.456;2023-06-19T04:22:39;20.20;99.90
22716;DHT22;11525;51.152;4.456;2023-06-19T04:25:14;20.30;99.90
22716;DHT22;11525;51.152;4.456;2023-06-19T04:28:01;20.40;99.90
22716;DHT22;11525;51.152;4.456;2023-06-19T04:30:29;20.40;99.90
22716;DHT22;11525;51.152;4.456;2023-06-19T04:32:59;20.30;99.90
22716;DHT22;11525;51.152;4.456;2023-06-19T04:35:25;20.30;99.90
22716;DHT22;11525;51.152;4.456;2023-06-19T04:38:00;20.30;99.90
22716;DHT22;11525;51.152;4.456;2023-06-19T04:40:27;20.40;99.90
22716;DHT22;11525;51.152;4.456;2023-06-19T04:42:53;20.40;99.90
22716;DHT22;11525;51.152;4.456;2023-06-19T04:45:19;20.40;99.90
22716;DHT22;11525;51.152;4.456;2023-06-19T04:47:45;20.50;99.90
22716;DHT22;11525;51.152;4.456;2023-06-19T04:50:11;20.50;99.90
22716;DHT22;11525;51.152;4.456;2023-06-19T04:52:39;20.60;99.90
22716;DHT22;11525;51.152;4.456;2023-06-19T04:55:06;20.60;99.90
22716;DHT22;11525;51.152;4.456;2023-06-19T04:57:35;20.40;99.90
22716;DHT22;11525;51.152;4.456;2023-06-19T05:00:04;20.30;99.90
22716;DHT22;11525;51.152;4.456;2023-06-19T05:02:39;20.30;99.90
22716;DHT22;11525;51.152;4.456;2023-06-19T05:05:09;20.30;99.90
22716;DHT22;11525;51.152;4.456;2023-06-19T05:07:34;20.40;99.90
22716;DHT22;11525;51.152;4.456;2023-06-19T05:10:00;20.50;99.90
22716;DHT22;11525;51.152;4.456;2023-06-19T05:12:26;20.50;99.90
22716;DHT22;11525;51.152;4.456;2023-06-19T05:14:52;20.40;99.90
22716;DHT22;11525;51.152;4.456;2023-06-19T05:17:17;20.50;99.90
22716;DHT22;11525;51.152;4.456;2023-06-19T05:19:46;20.40;99.90
22716;DHT22;11525;51.152;4.456;2023-06-19T05:22:12;20.60;99.90
22716;DHT22;11525;51.152;4.456;2023-06-19T05:24:49;20.70;99.90
22716;DHT22;11525;51.152;4.456;2023-06-19T05:27:15;20.70;99.90
22716;DHT22;11525;51.152;4.456;2023-06-19T05:29:40;20.80;99.90
22716;DHT22;11525;51.152;4.456;2023-06-19T05:32:06;20.60;99.90
22716;DHT22;11525;51.152;4.456;2023-06-19T05:37:30;20.40;99.90
22716;DHT22;11525;51.152;4.456;2023-06-19T05:39:56;20.50;99.90
22716;DHT22;11525;51.152;4.456;2023-06-19T05:42:22;20.40;99.90
22716;DHT22;11525;51.152;4.456;2023-06-19T05:44:50;20.40;99.90
22716;DHT22;11525;51.152;4.456;2023-06-19T05:47:19;20.50;99.90
22716;DHT22;11525;51.152;4.456;2023-06-19T05:49:46;20.60;99.90
22716;DHT22;11525;51.152;4.456;2023-06-19T05:52:12;20.90;99.90
22716;DHT22;11525;51.152;4.456;2023-06-19T05:54:38;20.90;99.90
22716;DHT22;11525;51.152;4.456;2023-06-19T05:57:04;21.30;99.90
22716;DHT22;11525;51.152;4.456;2023-06-19T05:59:33;21.50;99.90
22716;DHT22;11525;51.152;4.456;2023-06-19T06:02:05;21.60;99.90
22716;DHT22;11525;51.152;4.456;2023-06-19T06:04:32;21.80;99.90
22716;DHT22;11525;51.152;4.456;2023-06-19T06:06:58;22.10;99.90
22716;DHT22;11525;51.152;4.456;2023-06-19T06:09:26;22.30;99.90
22716;DHT22;11525;51.152;4.456;2023-06-19T06:11:52;22.30;99.90
22716;DHT22;11525;51.152;4.456;2023-06-19T06:14:24;22.30;99.90
22716;DHT22;11525;51.152;4.456;2023-06-19T06:16:53;22.70;99.90
22716;DHT22;11525;51.152;4.456;2023-06-19T06:19:38;23.30;99.90
22716;DHT22;11525;51.152;4.456;2023-06-19T06:22:04;23.40;99.90
22716;DHT22;11525;51.152;4.456;2023-06-19T06:24:36;23.70;99.90
22716;DHT22;11525;51.152;4.456;2023-06-19T06:27:17;23.90;99.90
22716;DHT22;11525;51.152;4.456;2023-06-19T06:29:56;24.20;99.90
22716;DHT22;11525;51.152;4.456;2023-06-19T06:32:26;24.80;99.90
22716;DHT22;11525;51.152;4.456;2023-06-19T06:34:57;25.20;99.90
22716;DHT22;11525;51.152;4.456;2023-06-19T06:37:25;26.10;99.90
22716;DHT22;11525;51.152;4.456;2023-06-19T06:39:57;27.70;99.90
22716;DHT22;11525;51.152;4.456;2023-06-19T06:42:26;28.50;99.40
22716;DHT22;11525;51.152;4.456;2023-06-19T06:44:52;29.50;97.00
22716;DHT22;11525;51.152;4.456;2023-06-19T06:47:17;30.20;93.30
22716;DHT22;11525;51.152;4.456;2023-06-19T06:49:43;30.60;91.80
22716;DHT22;11525;51.152;4.456;2023-06-19T06:52:09;30.50;90.00
22716;DHT22;11525;51.152;4.456;2023-06-19T06:54:35;29.60;90.90
22716;DHT22;11525;51.152;4.456;2023-06-19T06:57:01;29.10;91.90
22716;DHT22;11525;51.152;4.456;2023-06-19T06:59:27;28.40;93.50
22716;DHT22;11525;51.152;4.456;2023-06-19T07:01:54;28.20;93.80
22716;DHT22;11525;51.152;4.456;2023-06-19T07:04:20;27.50;94.20
22716;DHT22;11525;51.152;4.456;2023-06-19T07:06:47;27.30;94.80
22716;DHT22;11525;51.152;4.456;2023-06-19T07:09:17;26.70;96.10
22716;DHT22;11525;51.152;4.456;2023-06-19T07:11:46;26.90;97.10
22716;DHT22;11525;51.152;4.456;2023-06-19T07:14:12;27.50;95.60
22716;DHT22;11525;51.152;4.456;2023-06-19T07:16:38;28.00;95.30
22716;DHT22;11525;51.152;4.456;2023-06-19T07:19:04;28.10;94.70
22716;DHT22;11525;51.152;4.456;2023-06-19T07:21:30;28.10;94.20
22716;DHT22;11525;51.152;4.456;2023-06-19T07:23:59;27.90;93.50
22716;DHT22;11525;51.152;4.456;2023-06-19T07:26:31;27.80;93.80
22716;DHT22;11525;51.152;4.456;2023-06-19T07:29:00;28.00;93.80
22716;DHT22;11525;51.152;4.456;2023-06-19T07:31:26;28.70;92.50
22716;DHT22;11525;51.152;4.456;2023-06-19T07:33:52;28.60;92.30
22716;DHT22;11525;51.152;4.456;2023-06-19T07:36:17;28.40;92.80
22716;DHT22;11525;51.152;4.456;2023-06-19T07:38:45;28.50;92.30
22716;DHT22;11525;51.152;4.456;2023-06-19T07:41:11;28.40;92.20
22716;DHT22;11525;51.152;4.456;2023-06-19T07:43:38;27.80;92.60
22716;DHT22;11525;51.152;4.456;2023-06-19T07:46:07;27.30;93.80
22716;DHT22;11525;51.152;4.456;2023-06-19T07:48:33;27.10;94.30
22716;DHT22;11525;51.152;4.456;2023-06-19T07:50:58;26.80;94.60
22716;DHT22;11525;51.152;4.456;2023-06-19T07:53:24;27.20;94.50
22716;DHT22;11525;51.152;4.456;2023-06-19T07:55:50;27.20;94.10
22716;DHT22;11525;51.152;4.456;2023-06-19T07:58:15;27.70;93.70
22716;DHT22;11525;51.152;4.456;2023-06-19T08:00:41;29.10;91.90
22716;DHT22;11525;51.152;4.456;2023-06-19T08:03:07;30.10;89.40
22716;DHT22;11525;51.152;4.456;2023-06-19T08:05:32;29.50;88.00
22716;DHT22;11525;51.152;4.456;2023-06-19T08:08:01;28.50;90.40
22716;DHT22;11525;51.152;4.456;2023-06-19T08:10:27;28.30;91.10
22716;DHT22;11525;51.152;4.456;2023-06-19T08:12:53;28.30;91.10
22716;DHT22;11525;51.152;4.456;2023-06-19T08:15:19;28.00;91.50
22716;DHT22;11525;51.152;4.456;2023-06-19T08:17:45;28.10;91.30
22716;DHT22;11525;51.152;4.456;2023-06-19T08:20:11;27.50;91.80
22716;DHT22;11525;51.152;4.456;2023-06-19T08:22:37;27.50;92.50
22716;DHT22;11525;51.152;4.456;2023-06-19T08:25:03;27.40;92.70
22716;DHT22;11525;51.152;4.456;2023-06-19T08:27:29;28.30;91.90
22716;DHT22;11525;51.152;4.456;2023-06-19T08:29:58;29.50;89.70
22716;DHT22;11525;51.152;4.456;2023-06-19T08:32:24;30.90;85.20
22716;DHT22;11525;51.152;4.456;2023-06-19T08:34:50;31.30;82.30
22716;DHT22;11525;51.152;4.456;2023-06-19T08:37:17;31.00;81.70
22716;DHT22;11525;51.152;4.456;2023-06-19T08:39:43;31.50;79.80
22716;DHT22;11525;51.152;4.456;2023-06-19T08:42:09;32.00;78.00
22716;DHT22;11525;51.152;4.456;2023-06-19T08:44:36;33.20;74.40
22716;DHT22;11525;51.152;4.456;2023-06-19T08:47:02;33.50;71.70
22716;DHT22;11525;51.152;4.456;2023-06-19T08:49:34;34.20;69.30
22716;DHT22;11525;51.152;4.456;2023-06-19T08:52:00;34.90;65.40
22716;DHT22;11525;51.152;4.456;2023-06-19T08:54:26;34.50;63.70
22716;DHT22;11525;51.152;4.456;2023-06-19T08:56:52;33.80;64.80
22716;DHT22;11525;51.152;4.456;2023-06-19T08:59:20;34.00;63.30
22716;DHT22;11525;51.152;4.456;2023-06-19T09:01:52;34.10;63.00
22716;DHT22;11525;51.152;4.456;2023-06-19T09:04:20;34.20;63.10
22716;DHT22;11525;51.152;4.456;2023-06-19T09:06:50;34.10;62.60
22716;DHT22;11525;51.152;4.456;2023-06-19T09:09:18;34.80;61.10
22716;DHT22;11525;51.152;4.456;2023-06-19T09:12:06;35.50;59.50
22716;DHT22;11525;51.152;4.456;2023-06-19T09:14:42;35.90;58.40
22716;DHT22;11525;51.152;4.456;2023-06-19T09:17:17;36.10;56.40
22716;DHT22;11525;51.152;4.456;2023-06-19T09:19:51;34.80;57.50
22716;DHT22;11525;51.152;4.456;2023-06-19T09:22:18;34.10;58.50
22716;DHT22;11525;51.152;4.456;2023-06-19T09:24:47;33.90;59.70
22716;DHT22;11525;51.152;4.456;2023-06-19T09:27:14;33.80;59.50
22716;DHT22;11525;51.152;4.456;2023-06-19T09:29:45;34.90;58.50
22716;DHT22;11525;51.152;4.456;2023-06-19T09:32:25;35.90;56.10
22716;DHT22;11525;51.152;4.456;2023-06-19T09:34:53;36.30;54.70
22716;DHT22;11525;51.152;4.456;2023-06-19T09:37:25;36.50;54.10
22716;DHT22;11525;51.152;4.456;2023-06-19T09:39:59;36.30;54.00
22716;DHT22;11525;51.152;4.456;2023-06-19T09:42:32;36.50;54.00
22716;DHT22;11525;51.152;4.456;2023-06-19T09:45:07;36.20;53.40
22716;DHT22;11525;51.152;4.456;2023-06-19T09:47:38;34.60;55.10
22716;DHT22;11525;51.152;4.456;2023-06-19T09:50:05;33.30;58.10
22716;DHT22;11525;51.152;4.456;2023-06-19T09:52:32;32.50;59.90
22716;DHT22;11525;51.152;4.456;2023-06-19T09:55:02;32.00;60.60
22716;DHT22;11525;51.152;4.456;2023-06-19T09:57:28;31.80;62.30
22716;DHT22;11525;51.152;4.456;2023-06-19T09:59:56;32.10;61.60
22716;DHT22;11525;51.152;4.456;2023-06-19T10:02:25;31.60;63.40
22716;DHT22;11525;51.152;4.456;2023-06-19T10:04:54;31.90;62.00
22716;DHT22;11525;51.152;4.456;2023-06-19T10:07:25;31.90;63.00
22716;DHT22;11525;51.152;4.456;2023-06-19T10:10:03;32.60;62.10
22716;DHT22;11525;51.152;4.456;2023-06-19T10:12:43;33.50;59.50
22716;DHT22;11525;51.152;4.456;2023-06-19T10:17:44;34.10;57.80
22716;DHT22;11525;51.152;4.456;2023-06-19T10:20:30;33.80;58.30
22716;DHT22;11525;51.152;4.456;2023-06-19T10:23:04;32.70;59.00
22716;DHT22;11525;51.152;4.456;2023-06-19T10:25:32;32.40;60.00
22716;DHT22;11525;51.152;4.456;2023-06-19T10:27:59;32.00;61.80
22716;DHT22;11525;51.152;4.456;2023-06-19T10:30:24;32.80;60.50
22716;DHT22;11525;51.152;4.456;2023-06-19T10:32:50;33.70;57.90
22716;DHT22;11525;51.152;4.456;2023-06-19T10:35:17;34.40;56.70
22716;DHT22;11525;51.152;4.456;2023-06-19T10:37:43;35.30;55.40
22716;DHT22;11525;51.152;4.456;2023-06-19T10:40:12;35.80;52.80
22716;DHT22;11525;51.152;4.456;2023-06-19T10:42:41;36.50;52.00
22716;DHT22;11525;51.152;4.456;2023-06-19T10:45:10;36.30;52.10
22716;DHT22;11525;51.152;4.456;2023-06-19T10:48:01;34.70;54.20
22716;DHT22;11525;51.152;4.456;2023-06-19T10:50:28;34.80;55.50
22716;DHT22;11525;51.152;4.456;2023-06-19T10:52:54;35.80;53.50
22716;DHT22;11525;51.152;4.456;2023-06-19T10:55:23;35.90;53.20
22716;DHT22;11525;51.152;4.456;2023-06-19T10:57:50;33.70;56.00
22716;DHT22;11525;51.152;4.456;2023-06-19T11:00:27;32.80;58.50
22716;DHT22;11525;51.152;4.456;2023-06-19T11:02:56;33.00;57.90
22716;DHT22;11525;51.152;4.456;2023-06-19T11:05:25;32.90;57.60
22716;DHT22;11525;51.152;4.456;2023-06-19T11:07:59;31.70;60.60
22716;DHT22;11525;51.152;4.456;2023-06-19T11:10:27;31.00;63.20
22716;DHT22;11525;51.152;4.456;2023-06-19T11:12:57;30.60;64.60
22716;DHT22;11525;51.152;4.456;2023-06-19T11:15:30;30.30;66.10
22716;DHT22;11525;51.152;4.456;2023-06-19T11:17:58;30.30;65.80
22716;DHT22;11525;51.152;4.456;2023-06-19T11:20:25;29.80;66.50
22716;DHT22;11525;51.152;4.456;2023-06-19T11:22:59;29.50;67.90
22716;DHT22;11525;51.152;4.456;2023-06-19T11:25:39;29.10;68.60
22716;DHT22;11525;51.152;4.456;2023-06-19T11:28:16;29.00;69.90
22716;DHT22;11525;51.152;4.456;2023-06-19T11:30:49;28.90;70.00
22716;DHT22;11525;51.152;4.456;2023-06-19T11:33:19;28.60;71.30
22716;DHT22;11525;51.152;4.456;2023-06-19T11:35:49;28.50;72.30
22716;DHT22;11525;51.152;4.456;2023-06-19T11:38:27;28.70;72.00
22716;DHT22;11525;51.152;4.456;2023-06-19T11:40:55;28.70;72.00
22716;DHT22;11525;51.152;4.456;2023-06-19T11:43:28;28.40;71.90
22716;DHT22;11525;51.152;4.456;2023-06-19T11:46:00;28.40;71.20
22716;DHT22;11525;51.152;4.456;2023-06-19T11:48:27;28.50;72.10
22716;DHT22;11525;51.152;4.456;2023-06-19T11:50:53;28.60;72.30
22716;DHT22;11525;51.152;4.456;2023-06-19T11:53:20;28.80;72.00
22716;DHT22;11525;51.152;4.456;2023-06-19T11:55:46;28.80;71.30
22716;DHT22;11525;51.152;4.456;2023-06-19T11:58:12;28.80;72.00
22716;DHT22;11525;51.152;4.456;2023-06-19T12:00:38;29.00;71.30
22716;DHT22;11525;51.152;4.456;2023-06-19T12:03:04;29.40;68.60
22716;DHT22;11525;51.152;4.456;2023-06-19T12:05:30;28.90;69.80
22716;DHT22;11525;51.152;4.456;2023-06-19T12:07:56;28.60;68.80
22716;DHT22;11525;51.152;4.456;2023-06-19T12:10:22;28.40;69.90
22716;DHT22;11525;51.152;4.456;2023-06-19T12:12:47;28.10;70.80
22716;DHT22;11525;51.152;4.456;2023-06-19T12:15:13;28.10;72.10
22716;DHT22;11525;51.152;4.456;2023-06-19T12:17:39;28.10;70.20
22716;DHT22;11525;51.152;4.456;2023-06-19T12:20:06;28.10;71.00
22716;DHT22;11525;51.152;4.456;2023-06-19T12:22:33;27.70;72.30
22716;DHT22;11525;51.152;4.456;2023-06-19T12:24:59;27.70;73.00
22716;DHT22;11525;51.152;4.456;2023-06-19T12:27:25;27.80;71.50
22716;DHT22;11525;51.152;4.456;2023-06-19T12:29:53;27.90;70.60
22716;DHT22;11525;51.152;4.456;2023-06-19T12:32:19;28.10;69.70
22716;DHT22;11525;51.152;4.456;2023-06-19T12:34:46;28.10;70.40
22716;DHT22;11525;51.152;4.456;2023-06-19T12:37:14;28.00;70.20
22716;DHT22;11525;51.152;4.456;2023-06-19T12:39:41;27.90;71.50
22716;DHT22;11525;51.152;4.456;2023-06-19T12:42:07;27.90;71.90
22716;DHT22;11525;51.152;4.456;2023-06-19T12:44:33;27.90;72.60
22716;DHT22;11525;51.152;4.456;2023-06-19T12:46:59;28.20;72.50
22716;DHT22;11525;51.152;4.456;2023-06-19T12:49:26;28.10;73.20
22716;DHT22;11525;51.152;4.456;2023-06-19T12:51:51;28.10;72.90
22716;DHT22;11525;51.152;4.456;2023-06-19T12:54:18;28.40;72.80
22716;DHT22;11525;51.152;4.456;2023-06-19T12:56:44;28.40;71.60
22716;DHT22;11525;51.152;4.456;2023-06-19T12:59:10;28.30;71.80
22716;DHT22;11525;51.152;4.456;2023-06-19T13:01:36;28.30;71.80
22716;DHT22;11525;51.152;4.456;2023-06-19T13:04:02;28.40;71.70
22716;DHT22;11525;51.152;4.456;2023-06-19T13:06:28;28.70;72.00
22716;DHT22;11525;51.152;4.456;2023-06-19T13:08:53;28.80;70.30
22716;DHT22;11525;51.152;4.456;2023-06-19T13:11:19;28.40;71.50
22716;DHT22;11525;51.152;4.456;2023-06-19T13:13:45;28.50;71.80
22716;DHT22;11525;51.152;4.456;2023-06-19T13:16:11;28.50;70.50
22716;DHT22;11525;51.152;4.456;2023-06-19T13:18:36;28.40;70.50
22716;DHT22;11525;51.152;4.456;2023-06-19T13:21:02;28.20;71.40
22716;DHT22;11525;51.152;4.456;2023-06-19T13:23:28;28.30;71.60
22716;DHT22;11525;51.152;4.456;2023-06-19T13:25:57;28.20;71.10
22716;DHT22;11525;51.152;4.456;2023-06-19T13:28:22;27.90;70.70
22716;DHT22;11525;51.152;4.456;2023-06-19T13:30:49;27.60;72.00
22716;DHT22;11525;51.152;4.456;2023-06-19T13:33:15;27.80;72.70
22716;DHT22;11525;51.152;4.456;2023-06-19T13:35:42;28.00;72.40
22716;DHT22;11525;51.152;4.456;2023-06-19T13:38:08;28.00;70.20
22716;DHT22;11525;51.152;4.456;2023-06-19T13:40:35;27.90;69.60
22716;DHT22;11525;51.152;4.456;2023-06-19T13:43:00;27.90;70.20
22716;DHT22;11525;51.152;4.456;2023-06-19T13:45:28;28.10;69.50
22716;DHT22;11525;51.152;4.456;2023-06-19T13:47:53;28.20;70.10
22716;DHT22;11525;51.152;4.456;2023-06-19T13:50:19;27.90;69.20
22716;DHT22;11525;51.152;4.456;2023-06-19T13:52:48;27.80;70.10
22716;DHT22;11525;51.152;4.456;2023-06-19T13:55:14;27.70;71.20
22716;DHT22;11525;51.152;4.456;2023-06-19T13:57:41;28.00;70.10
22716;DHT22;11525;51.152;4.456;2023-06-19T14:00:09;28.00;70.30
22716;DHT22;11525;51.152;4.456;2023-06-19T14:02:36;28.20;69.10
22716;DHT22;11525;51.152;4.456;2023-06-19T14:05:07;28.20;69.60
22716;DHT22;11525;51.152;4.456;2023-06-19T14:07:34;27.70;69.00
22716;DHT22;11525;51.152;4.456;2023-06-19T14:10:04;27.40;70.70
22716;DHT22;11525;51.152;4.456;2023-06-19T14:12:30;27.70;70.90
22716;DHT22;11525;51.152;4.456;2023-06-19T14:14:56;28.00;69.30
22716;DHT22;11525;51.152;4.456;2023-06-19T14:17:23;28.20;69.30
22716;DHT22;11525;51.152;4.456;2023-06-19T14:19:49;28.10;69.20
22716;DHT22;11525;51.152;4.456;2023-06-19T14:22:16;28.30;68.20
22716;DHT22;11525;51.152;4.456;2023-06-19T14:24:42;28.20;67.60
22716;DHT22;11525;51.152;4.456;2023-06-19T14:27:08;28.10;67.40
22716;DHT22;11525;51.152;4.456;2023-06-19T14:29:34;28.20;68.80
22716;DHT22;11525;51.152;4.456;2023-06-19T14:32:00;28.30;67.80
22716;DHT22;11525;51.152;4.456;2023-06-19T14:34:26;28.30;68.00
22716;DHT22;11525;51.152;4.456;2023-06-19T14:36:51;28.40;68.50
22716;DHT22;11525;51.152;4.456;2023-06-19T14:39:17;28.40;68.90
22716;DHT22;11525;51.152;4.456;2023-06-19T14:41:43;28.20;68.80
22716;DHT22;11525;51.152;4.456;2023-06-19T14:44:09;28.20;69.20
22716;DHT22;11525;51.152;4.456;2023-06-19T14:46:35;28.30;69.30
22716;DHT22;11525;51.152;4.456;2023-06-19T14:49:07;28.40;68.50
22716;DHT22;11525;51.152;4.456;2023-06-19T14:51:33;28.40;69.00
22716;DHT22;11525;51.152;4.456;2023-06-19T14:53:59;28.60;67.20
22716;DHT22;11525;51.152;4.456;2023-06-19T14:56:25;28.70;66.80
22716;DHT22;11525;51.152;4.456;2023-06-19T14:58:51;28.80;65.30
22716;DHT22;11525;51.152;4.456;2023-06-19T15:01:16;28.50;65.30
22716;DHT22;11525;51.152;4.456;2023-06-19T15:03:42;28.50;65.70
22716;DHT22;11525;51.152;4.456;2023-06-19T15:06:08;28.50;65.30
22716;DHT22;11525;51.152;4.456;2023-06-19T15:08:34;28.70;64.70
22716;DHT22;11525;51.152;4.456;2023-06-19T15:11:03;28.40;65.20
22716;DHT22;11525;51.152;4.456;2023-06-19T15:13:30;28.20;66.40
22716;DHT22;11525;51.152;4.456;2023-06-19T15:15:56;28.10;68.40
22716;DHT22;11525;51.152;4.456;2023-06-19T15:18:26;27.70;68.10
22716;DHT22;11525;51.152;4.456;2023-06-19T15:20:52;27.50;68.00
22716;DHT22;11525;51.152;4.456;2023-06-19T15:23:18;27.30;69.60
22716;DHT22;11525;51.152;4.456;2023-06-19T15:25:44;27.50;69.90
22716;DHT22;11525;51.152;4.456;2023-06-19T15:28:10;27.90;69.40
22716;DHT22;11525;51.152;4.456;2023-06-19T15:30:36;28.10;68.60
22716;DHT22;11525;51.152;4.456;2023-06-19T15:33:02;28.50;66.90
22716;DHT22;11525;51.152;4.456;2023-06-19T15:35:28;28.90;66.10
22716;DHT22;11525;51.152;4.456;2023-06-19T15:37:54;29.20;64.40
22716;DHT22;11525;51.152;4.456;2023-06-19T15:40:24;29.30;62.60
22716;DHT22;11525;51.152;4.456;2023-06-19T15:42:51;29.20;63.20